createdAt,value
2023-02-07T00:00:56.177Z,99.90
2023-02-07T00:03:25.940Z,99.90
2023-02-07T00:05:53.860Z,99.90
2023-02-07T00:08:23.815Z,99.90
2023-02-07T00:10:54.991Z,99.90
2023-02-07T00:13:24.885Z,99.90
2023-02-07T00:15:54.718Z,99.90
2023-02-07T00:18:24.435Z,99.90
2023-02-07T00:20:59.696Z,99.90
2023-02-07T00:23:29.930Z,99.90
2023-02-07T00:26:01.563Z,99.90
2023-02-07T00:28:31.468Z,99.90
2023-02-07T00:31:10.389Z,99.90
2023-02-07T00:33:41.448Z,99.90
2023-02-07T00:36:15.158Z,99.90
2023-02-07T00:38:45.098Z,99.90
2023-02-07T00:41:18.569Z,99.90
2023-02-07T00:43:49.354Z,99.90
2023-02-07T00:46:18.989Z,99.90
2023-02-07T00:48:48.678Z,99.90
2023-02-07T00:51:18.545Z,99.90
2023-02-07T00:53:49.154Z,99.90
2023-02-07T00:56:20.288Z,99.90
2023-02-07T00:58:51.074Z,99.90
2023-02-07T01:01:21.460Z,99.90
2023-02-07T01:03:51.137Z,99.90
2023-02-07T01:06:21.354Z,99.90
2023-02-07T01:08:51.192Z,99.90
2023-02-07T01:11:22.481Z,99.90
2023-02-07T01:13:52.597Z,99.90
2023-02-07T01:16:24.340Z,99.90
2023-02-07T01:18:54.225Z,99.90
2023-02-07T01:21:26.897Z,99.90
2023-02-07T01:23:57.186Z,99.90
2023-02-07T01:26:28.937Z,99.90
2023-02-07T01:28:59.146Z,99.90
2023-02-07T01:31:29.153Z,99.90
2023-02-07T01:33:59.842Z,99.90
2023-02-07T01:36:31.091Z,99.90
2023-02-07T01:39:01.151Z,99.90
2023-02-07T01:41:32.355Z,99.90
2023-02-07T01:44:05.720Z,99.90
2023-02-07T01:46:36.998Z,99.90
2023-02-07T01:49:10.305Z,99.90
2023-02-07T01:51:43.046Z,99.90
2023-02-07T01:54:15.911Z,99.90
2023-02-07T01:56:52.090Z,99.90
2023-02-07T01:59:22.188Z,99.90
2023-02-07T02:01:52.170Z,99.90
2023-02-07T02:04:22.099Z,99.90
2023-02-07T02:06:52.059Z,99.90
2023-02-07T02:09:21.969Z,99.90
2023-02-07T02:12:16.004Z,99.90
2023-02-07T02:14:59.816Z,99.90
2023-02-07T02:17:38.933Z,99.90
2023-02-07T02:20:33.975Z,99.90
2023-02-07T02:23:16.243Z,99.90
2023-02-07T02:26:20.931Z,99.90
2023-02-07T02:29:25.711Z,99.90
2023-02-07T02:32:19.633Z,99.90
2023-02-07T02:34:59.481Z,99.90
2023-02-07T02:37:37.112Z,99.90
2023-02-07T02:40:13.000Z,99.90
2023-02-07T02:42:47.191Z,99.90
2023-02-07T02:45:21.765Z,99.90
2023-02-07T02:47:52.865Z,99.90
2023-02-07T02:50:27.889Z,99.90
2023-02-07T02:52:58.425Z,99.90
2023-02-07T02:55:53.726Z,99.90
2023-02-07T02:58:32.696Z,99.90
2023-02-07T03:01:13.927Z,99.90
2023-02-07T03:03:56.889Z,99.90
2023-02-07T03:06:38.888Z,99.90
2023-02-07T03:09:17.949Z,99.90
2023-02-07T03:11:57.346Z,99.90
2023-02-07T03:14:32.433Z,99.90
2023-02-07T03:17:10.569Z,99.90
2023-02-07T03:19:49.753Z,99.90
2023-02-07T03:22:23.935Z,99.90
2023-02-07T03:24:57.260Z,99.90
2023-02-07T03:27:29.325Z,99.90
2023-02-07T03:30:04.797Z,99.90
2023-02-07T03:32:38.076Z,99.90
2023-02-07T03:35:11.040Z,99.90
2023-02-07T03:37:47.484Z,99.90
2023-02-07T03:40:18.140Z,99.90
2023-02-07T03:42:51.119Z,99.90
2023-02-07T03:45:22.691Z,99.90
2023-02-07T03:47:52.570Z,99.90
2023-02-07T03:50:22.540Z,99.90
2023-02-07T03:52:53.761Z,99.90
2023-02-07T03:55:23.555Z,99.90
2023-02-07T03:57:53.294Z,99.90
2023-02-07T04:00:23.166Z,99.90
2023-02-07T04:02:53.053Z,99.90
2023-02-07T04:05:22.941Z,99.90
2023-02-07T04:07:54.365Z,99.90
2023-02-07T04:10:23.918Z,99.90
2023-02-07T04:12:53.801Z,99.90
2023-02-07T04:15:23.577Z,99.90
2023-02-07T04:17:53.502Z,99.90
2023-02-07T04:20:23.108Z,99.90
2023-02-07T04:22:54.252Z,99.90
2023-02-07T04:25:24.067Z,99.90
2023-02-07T04:27:53.923Z,99.90
2023-02-07T04:30:23.861Z,99.90
2023-02-07T04:32:53.668Z,99.90
2023-02-07T04:35:23.754Z,99.90
2023-02-07T04:37:54.833Z,99.90
2023-02-07T04:40:24.656Z,99.90
2023-02-07T04:42:54.464Z,99.90
2023-02-07T04:45:24.255Z,99.90
2023-02-07T04:47:53.874Z,99.90
2023-02-07T04:50:23.751Z,99.90
2023-02-07T04:52:54.834Z,99.90
2023-02-07T04:55:24.756Z,99.90
2023-02-07T04:57:54.661Z,99.90
2023-02-07T05:00:24.297Z,99.90
2023-02-07T05:02:53.852Z,99.90
2023-02-07T05:05:23.664Z,99.90
2023-02-07T05:07:54.787Z,99.90
2023-02-07T05:10:24.602Z,99.90
2023-02-07T05:12:54.438Z,99.90
2023-02-07T05:15:24.460Z,99.90
2023-02-07T05:17:54.471Z,99.90
2023-02-07T05:20:24.561Z,99.90
2023-02-07T05:22:53.824Z,99.90
2023-02-07T05:25:23.563Z,99.90
2023-02-07T05:27:53.438Z,99.90
2023-02-07T05:30:23.653Z,99.90
2023-02-07T05:33:04.461Z,99.90
2023-02-07T05:35:35.071Z,99.90
2023-02-07T05:38:07.674Z,99.90
2023-02-07T05:40:38.070Z,99.90
2023-02-07T05:43:08.184Z,99.90
2023-02-07T05:45:38.567Z,99.90
2023-02-07T05:48:08.805Z,99.90
2023-02-07T05:50:38.751Z,99.90
2023-02-07T05:53:10.630Z,99.90
2023-02-07T05:55:40.605Z,99.90
2023-02-07T05:58:10.323Z,99.90
2023-02-07T06:00:40.528Z,99.90
2023-02-07T06:03:10.712Z,99.90
2023-02-07T06:05:40.629Z,99.90
2023-02-07T06:08:11.883Z,99.90
2023-02-07T06:10:41.741Z,99.90
2023-02-07T06:13:11.539Z,99.90
2023-02-07T06:15:41.683Z,99.90
2023-02-07T06:18:11.705Z,99.90
2023-02-07T06:20:41.559Z,99.90
2023-02-07T06:23:13.341Z,99.90
2023-02-07T06:25:43.218Z,99.90
2023-02-07T06:28:13.081Z,99.90
2023-02-07T06:30:41.233Z,99.90
2023-02-07T06:33:10.813Z,99.90
2023-02-07T06:35:47.097Z,99.90
2023-02-07T06:38:19.264Z,99.90
2023-02-07T06:40:49.073Z,99.90
2023-02-07T06:43:18.773Z,99.90
2023-02-07T06:45:48.715Z,99.90
2023-02-07T06:48:18.550Z,99.90
2023-02-07T06:50:52.256Z,99.90
2023-02-07T06:53:23.392Z,99.90
2023-02-07T06:55:53.309Z,99.90
2023-02-07T06:58:23.224Z,99.90
2023-02-07T07:00:53.187Z,99.90
2023-02-07T07:03:26.986Z,99.90
2023-02-07T07:05:57.046Z,99.90
2023-02-07T07:08:28.617Z,99.90
2023-02-07T07:10:59.542Z,99.90
2023-02-07T07:13:29.198Z,99.90
2023-02-07T07:15:59.134Z,99.90
2023-02-07T07:18:28.875Z,99.90
2023-02-07T07:20:58.619Z,99.90
2023-02-07T07:23:29.742Z,99.90
2023-02-07T07:25:59.561Z,99.90
2023-02-07T07:28:29.617Z,99.90
2023-02-07T07:31:07.045Z,99.90
2023-02-07T07:33:37.562Z,99.90
2023-02-07T07:36:09.786Z,99.90
2023-02-07T07:38:44.443Z,99.90
2023-02-07T07:41:15.931Z,99.90
2023-02-07T07:43:45.504Z,99.90
2023-02-07T07:46:15.298Z,99.90
2023-02-07T07:48:45.133Z,99.90
2023-02-07T07:51:14.953Z,99.90
2023-02-07T07:53:45.912Z,99.90
2023-02-07T07:56:15.768Z,99.90
2023-02-07T07:58:45.655Z,99.90
2023-02-07T08:01:15.790Z,99.90
2023-02-07T08:03:45.439Z,99.90
2023-02-07T08:06:15.361Z,99.90
2023-02-07T08:08:47.286Z,99.90
2023-02-07T08:11:16.880Z,99.90
2023-02-07T08:13:46.719Z,99.90
2023-02-07T08:16:16.765Z,99.90
2023-02-07T08:18:46.999Z,99.90
2023-02-07T08:21:17.088Z,99.90
2023-02-07T08:23:48.298Z,99.90
2023-02-07T08:26:18.152Z,99.90
2023-02-07T08:28:48.774Z,99.90
2023-02-07T08:31:19.268Z,99.90
2023-02-07T08:33:49.104Z,99.90
2023-02-07T08:36:19.267Z,99.90
2023-02-07T08:38:51.465Z,99.90
2023-02-07T08:41:21.338Z,99.90
2023-02-07T08:43:51.130Z,99.90
2023-02-07T08:46:21.055Z,99.90
2023-02-07T08:48:51.017Z,99.90
2023-02-07T08:51:21.464Z,99.90
2023-02-07T08:53:52.323Z,99.90
2023-02-07T08:56:21.914Z,99.90
2023-02-07T08:58:51.876Z,99.90
2023-02-07T09:01:21.703Z,99.90
2023-02-07T09:03:51.342Z,99.90
2023-02-07T09:06:21.334Z,99.90
2023-02-07T09:08:52.738Z,99.90
2023-02-07T09:11:22.509Z,99.90
2023-02-07T09:13:52.360Z,99.90
2023-02-07T09:16:23.423Z,99.90
2023-02-07T09:18:53.432Z,99.90
2023-02-07T09:21:23.612Z,99.90
2023-02-07T09:23:56.671Z,99.90
2023-02-07T09:26:27.435Z,99.90
2023-02-07T09:28:57.003Z,99.90
2023-02-07T09:31:26.971Z,99.90
2023-02-07T09:33:57.065Z,99.90
2023-02-07T09:36:28.772Z,99.90
2023-02-07T09:39:00.467Z,99.90
2023-02-07T09:41:37.583Z,99.90
2023-02-07T09:44:14.456Z,99.90
2023-02-07T09:46:48.676Z,99.90
2023-02-07T09:49:28.971Z,99.90
2023-02-07T09:52:00.524Z,99.90
2023-02-07T09:54:35.992Z,99.90
2023-02-07T09:57:09.938Z,99.90
2023-02-07T09:59:47.421Z,99.90
2023-02-07T10:02:22.799Z,99.90
2023-02-07T10:04:57.441Z,99.90
2023-02-07T10:07:27.309Z,99.90
2023-02-07T10:09:58.288Z,99.90
2023-02-07T10:12:49.570Z,99.90
2023-02-07T10:15:33.400Z,99.90
2023-02-07T10:18:21.032Z,99.90
2023-02-07T10:20:56.396Z,99.90
2023-02-07T10:23:36.955Z,99.90
2023-02-07T10:26:16.832Z,99.90
2023-02-07T10:29:09.510Z,99.90
2023-02-07T10:31:44.170Z,99.90
2023-02-07T10:34:19.057Z,99.90
2023-02-07T10:36:50.793Z,99.90
2023-02-07T10:39:27.410Z,99.90
2023-02-07T10:41:59.292Z,99.90
2023-02-07T10:44:29.607Z,99.90
2023-02-07T10:47:04.035Z,99.90
2023-02-07T10:49:38.502Z,99.90
2023-02-07T10:52:19.061Z,99.90
2023-02-07T10:54:59.751Z,99.90
2023-02-07T10:57:31.914Z,99.90
2023-02-07T11:00:03.429Z,99.90
2023-02-07T11:03:03.241Z,99.90
2023-02-07T11:05:57.517Z,99.90
2023-02-07T11:08:30.368Z,99.90
2023-02-07T11:11:01.379Z,99.90
2023-02-07T11:13:46.085Z,99.90
2023-02-07T11:16:20.480Z,99.90
2023-02-07T11:18:59.303Z,99.90
2023-02-07T11:21:30.673Z,99.90
2023-02-07T11:24:06.309Z,99.90
2023-02-07T11:26:41.551Z,99.90
2023-02-07T11:29:17.975Z,99.90
2023-02-07T11:31:49.415Z,99.90
2023-02-07T11:34:47.297Z,99.90
2023-02-07T11:37:25.995Z,99.90
2023-02-07T11:39:57.627Z,99.90
2023-02-07T11:42:32.151Z,99.90
2023-02-07T11:45:06.920Z,99.90
2023-02-07T11:47:38.487Z,99.90
2023-02-07T11:50:17.140Z,99.90
2023-02-07T11:52:57.479Z,99.90
2023-02-07T11:55:32.070Z,99.90
2023-02-07T11:58:03.846Z,99.90
2023-02-07T12:00:39.340Z,99.90
2023-02-07T12:03:27.483Z,99.90
2023-02-07T12:06:00.389Z,99.90
2023-02-07T12:08:34.152Z,99.90
2023-02-07T12:11:06.928Z,99.90
2023-02-07T12:13:40.572Z,99.90
2023-02-07T12:16:17.195Z,99.90
2023-02-07T12:18:50.680Z,99.90
2023-02-07T12:21:25.517Z,99.90
2023-02-07T12:24:01.289Z,99.90
2023-02-07T12:26:34.552Z,99.90
2023-02-07T12:29:26.073Z,99.90
2023-02-07T12:32:06.007Z,99.90
2023-02-07T12:34:39.286Z,99.90
2023-02-07T12:37:18.902Z,99.90
2023-02-07T12:39:55.948Z,99.90
2023-02-07T12:42:34.177Z,99.90
2023-02-07T12:45:06.782Z,99.90
2023-02-07T12:47:46.181Z,99.90
2023-02-07T12:50:40.915Z,99.90
2023-02-07T12:53:19.971Z,99.90
2023-02-07T12:55:58.453Z,99.90
2023-02-07T12:58:37.904Z,99.90
2023-02-07T13:01:13.113Z,99.90
2023-02-07T13:03:56.891Z,99.90
2023-02-07T13:06:39.725Z,99.90
2023-02-07T13:09:17.333Z,99.90
2023-02-07T13:12:00.700Z,99.90
2023-02-07T13:14:38.738Z,99.90
2023-02-07T13:17:28.977Z,99.90
2023-02-07T13:20:06.042Z,99.90
2023-02-07T13:22:44.572Z,99.90
2023-02-07T13:25:22.981Z,99.90
2023-02-07T13:27:55.671Z,99.90
2023-02-07T13:30:27.765Z,99.90
2023-02-07T13:33:00.520Z,99.90
2023-02-07T13:35:35.073Z,99.90
2023-02-07T13:38:10.135Z,99.90
2023-02-07T13:40:47.835Z,99.90
2023-02-07T13:43:20.094Z,99.90
2023-02-07T13:45:56.534Z,99.90
2023-02-07T13:48:34.202Z,99.90
2023-02-07T13:51:13.254Z,99.90
2023-02-07T13:53:49.486Z,99.90
2023-02-07T13:56:48.369Z,99.00
2023-02-07T13:59:40.240Z,99.30
2023-02-07T14:02:21.336Z,99.30
2023-02-07T14:04:54.390Z,99.80
2023-02-07T14:07:29.704Z,99.90
2023-02-07T14:10:02.334Z,99.00
2023-02-07T14:12:34.244Z,98.70
2023-02-07T14:15:36.436Z,98.40
2023-02-07T14:18:26.754Z,98.40
2023-02-07T14:21:03.963Z,98.70
2023-02-07T14:24:03.168Z,97.00
2023-02-07T14:26:57.531Z,98.70
2023-02-07T14:29:53.504Z,98.70
2023-02-07T14:32:31.206Z,99.00
2023-02-07T14:35:02.836Z,99.30
2023-02-07T14:37:43.492Z,98.40
2023-02-07T14:40:25.867Z,98.00
2023-02-07T14:43:02.842Z,96.80
2023-02-07T14:45:35.360Z,95.80
2023-02-07T14:48:06.125Z,94.80
2023-02-07T14:50:36.520Z,94.80
2023-02-07T14:53:07.514Z,96.00
2023-02-07T14:55:54.467Z,93.70
2023-02-07T14:58:33.066Z,93.70
2023-02-07T15:01:02.668Z,94.40
2023-02-07T15:03:34.978Z,94.40
2023-02-07T15:06:23.832Z,95.20
2023-02-07T15:09:01.827Z,93.30
2023-02-07T15:11:33.314Z,93.10
2023-02-07T15:14:05.011Z,93.50
2023-02-07T15:16:38.446Z,93.20
2023-02-07T15:19:14.089Z,93.10
2023-02-07T15:21:46.168Z,94.80
2023-02-07T15:24:23.725Z,93.10
2023-02-07T15:26:58.693Z,93.60
2023-02-07T15:29:30.326Z,93.80
2023-02-07T15:32:00.655Z,93.10
2023-02-07T15:34:33.295Z,93.60
2023-02-07T15:37:13.313Z,94.10
2023-02-07T15:39:43.383Z,93.80
2023-02-07T15:42:20.250Z,96.30
2023-02-07T15:44:51.836Z,94.10
2023-02-07T15:47:37.295Z,95.00
2023-02-07T15:50:20.836Z,95.50
2023-02-07T15:52:54.793Z,95.30
2023-02-07T15:55:30.742Z,96.30
2023-02-07T15:58:02.519Z,96.50
2023-02-07T16:00:39.285Z,95.60
2023-02-07T16:03:15.879Z,94.80
2023-02-07T16:05:45.696Z,95.50
2023-02-07T16:08:30.729Z,95.30
2023-02-07T16:11:15.718Z,95.70
2023-02-07T16:13:53.592Z,96.00
2023-02-07T16:16:26.738Z,95.10
2023-02-07T16:19:07.249Z,94.60
2023-02-07T16:21:37.675Z,94.10
2023-02-07T16:24:10.392Z,95.10
2023-02-07T16:26:40.852Z,94.60
2023-02-07T16:29:16.332Z,94.50
2023-02-07T16:31:47.083Z,94.20
2023-02-07T16:34:17.924Z,94.50
2023-02-07T16:36:52.369Z,95.20
2023-02-07T16:39:23.188Z,95.60
2023-02-07T16:41:56.075Z,95.60
2023-02-07T16:44:31.213Z,96.10
2023-02-07T16:47:01.142Z,95.90
2023-02-07T16:49:32.962Z,96.60
2023-02-07T16:52:03.093Z,95.60
2023-02-07T16:54:32.939Z,96.50
2023-02-07T16:57:04.115Z,96.30
2023-02-07T16:59:35.224Z,95.70
2023-02-07T17:02:12.260Z,96.80
2023-02-07T17:04:41.874Z,96.20
2023-02-07T17:07:13.016Z,95.40
2023-02-07T17:09:42.969Z,95.80
2023-02-07T17:12:14.453Z,96.70
2023-02-07T17:14:45.622Z,97.80
2023-02-07T17:17:15.337Z,97.40
2023-02-07T17:19:47.445Z,97.80
2023-02-07T17:22:17.566Z,97.50
2023-02-07T17:24:48.855Z,97.30
2023-02-07T17:27:18.566Z,98.30
2023-02-07T17:29:49.666Z,97.30
2023-02-07T17:32:20.971Z,98.80
2023-02-07T17:34:50.767Z,98.10
2023-02-07T17:37:21.142Z,99.10
2023-02-07T17:39:50.909Z,99.20
2023-02-07T17:42:20.820Z,99.80
2023-02-07T17:44:52.169Z,99.90
2023-02-07T17:47:23.530Z,99.90
2023-02-07T17:49:53.311Z,99.90
2023-02-07T17:52:23.124Z,99.90
2023-02-07T17:54:52.973Z,99.90
2023-02-07T17:57:22.869Z,99.90
2023-02-07T17:59:53.834Z,99.90
2023-02-07T18:02:23.675Z,99.90
2023-02-07T18:04:53.614Z,99.90
2023-02-07T18:07:23.452Z,99.90
2023-02-07T18:09:54.725Z,99.90
2023-02-07T18:12:24.643Z,99.90
2023-02-07T18:14:56.644Z,99.90
2023-02-07T18:17:27.136Z,99.90
2023-02-07T18:19:56.904Z,99.90
2023-02-07T18:22:26.678Z,99.90
2023-02-07T18:24:56.540Z,99.90
2023-02-07T18:27:26.365Z,99.90
2023-02-07T18:29:57.380Z,99.90
2023-02-07T18:32:27.296Z,99.90
2023-02-07T18:34:57.168Z,99.90
2023-02-07T18:37:27.055Z,99.90
2023-02-07T18:39:56.815Z,99.90
2023-02-07T18:42:26.764Z,99.90
2023-02-07T18:44:57.732Z,99.90
2023-02-07T18:47:28.040Z,99.90
2023-02-07T18:49:57.876Z,99.90
2023-02-07T18:52:27.664Z,99.90
2023-02-07T18:54:58.073Z,99.90
2023-02-07T18:57:27.980Z,99.90
2023-02-07T18:59:59.034Z,99.90
2023-02-07T19:02:28.736Z,99.90
2023-02-07T19:04:58.816Z,99.90
2023-02-07T19:07:28.493Z,99.90
2023-02-07T19:09:59.834Z,99.90
2023-02-07T19:12:29.442Z,99.90
2023-02-07T19:15:00.383Z,99.90
2023-02-07T19:17:30.656Z,99.90
2023-02-07T19:20:00.457Z,99.90
2023-02-07T19:22:35.827Z,99.90
2023-02-07T19:25:06.632Z,99.90
2023-02-07T19:27:36.490Z,99.90
2023-02-07T19:30:07.949Z,99.90
2023-02-07T19:32:37.762Z,99.90
2023-02-07T19:35:08.479Z,99.90
2023-02-07T19:37:38.299Z,99.90
2023-02-07T19:40:09.645Z,99.90
2023-02-07T19:42:39.239Z,99.90
2023-02-07T19:45:11.756Z,99.90
2023-02-07T19:47:41.544Z,99.90
2023-02-07T19:50:12.961Z,99.90
2023-02-07T19:52:42.848Z,99.90
2023-02-07T19:55:12.691Z,99.90
2023-02-07T19:57:42.540Z,99.90
2023-02-07T20:00:16.095Z,99.90
2023-02-07T20:02:45.949Z,99.90
2023-02-07T20:05:15.747Z,99.90
2023-02-07T20:07:45.508Z,99.90
2023-02-07T20:10:15.350Z,99.90
2023-02-07T20:12:45.195Z,99.90
2023-02-07T20:15:16.469Z,99.90
2023-02-07T20:17:46.349Z,99.90
2023-02-07T20:20:17.661Z,99.90
2023-02-07T20:22:47.536Z,99.90
2023-02-07T20:25:17.203Z,99.90
2023-02-07T20:27:47.570Z,99.90
2023-02-07T20:30:19.945Z,99.90
2023-02-07T20:32:51.100Z,99.90
2023-02-07T20:35:20.799Z,99.90
2023-02-07T20:37:50.820Z,99.90
2023-02-07T20:40:20.871Z,99.90
2023-02-07T20:42:50.621Z,99.90
2023-02-07T20:45:22.616Z,99.90
2023-02-07T20:47:52.455Z,99.90
2023-02-07T20:50:22.308Z,99.90
2023-02-07T20:52:52.105Z,99.90
2023-02-07T20:55:21.978Z,99.90
2023-02-07T20:57:51.824Z,99.90
2023-02-07T21:00:23.215Z,99.90
2023-02-07T21:02:53.063Z,99.90
2023-02-07T21:05:22.994Z,99.90
2023-02-07T21:07:52.767Z,99.90
2023-02-07T21:10:22.986Z,99.90
2023-02-07T21:12:52.792Z,99.90
2023-02-07T21:15:23.892Z,99.90
2023-02-07T21:17:53.732Z,99.90
2023-02-07T21:20:23.524Z,99.90
2023-02-07T21:22:53.231Z,99.90
2023-02-07T21:25:22.960Z,99.90
2023-02-07T21:27:52.726Z,99.90
2023-02-07T21:30:23.740Z,99.90
2023-02-07T21:32:53.472Z,99.90
2023-02-07T21:35:23.220Z,99.90
2023-02-07T21:37:52.970Z,99.90
2023-02-07T21:40:22.562Z,99.90
2023-02-07T21:42:52.707Z,99.90
2023-02-07T21:45:23.723Z,99.90
2023-02-07T21:47:53.272Z,99.90
2023-02-07T21:50:23.109Z,99.90
2023-02-07T21:52:52.847Z,99.90
2023-02-07T21:55:22.637Z,99.90
2023-02-07T21:57:52.436Z,99.90
2023-02-07T22:00:24.442Z,99.90
2023-02-07T22:02:54.369Z,99.90
2023-02-07T22:05:24.293Z,99.90
2023-02-07T22:07:54.048Z,99.90
2023-02-07T22:10:23.967Z,99.90
2023-02-07T22:12:53.709Z,99.90
2023-02-07T22:15:24.842Z,99.90
2023-02-07T22:17:54.726Z,99.90
2023-02-07T22:20:24.506Z,99.90
2023-02-07T22:22:55.487Z,99.90
2023-02-07T22:25:24.977Z,99.90
2023-02-07T22:27:54.810Z,99.90
2023-02-07T22:30:26.007Z,99.90
2023-02-07T22:32:55.778Z,99.90
2023-02-07T22:35:25.604Z,99.90
2023-02-07T22:37:55.364Z,99.90
2023-02-07T22:40:25.190Z,99.90
2023-02-07T22:42:54.930Z,99.90
2023-02-07T22:45:26.085Z,99.90
2023-02-07T22:47:55.885Z,99.90
2023-02-07T22:50:25.576Z,99.90
2023-02-07T22:52:55.405Z,99.90
2023-02-07T22:55:25.430Z,99.90
2023-02-07T22:57:55.185Z,99.90
2023-02-07T23:00:26.493Z,99.90
2023-02-07T23:02:57.154Z,99.90
2023-02-07T23:05:26.748Z,99.90
2023-02-07T23:07:56.538Z,99.90
2023-02-07T23:10:26.780Z,99.90
2023-02-07T23:12:56.505Z,99.90
2023-02-07T23:15:27.427Z,99.90
2023-02-07T23:17:57.278Z,99.90
2023-02-07T23:20:27.448Z,99.90
2023-02-07T23:22:57.355Z,99.90
2023-02-07T23:25:27.112Z,99.90
2023-02-07T23:27:56.943Z,99.90
2023-02-07T23:30:28.165Z,99.90
2023-02-07T23:32:57.929Z,99.90
2023-02-07T23:35:27.731Z,99.90
2023-02-07T23:37:57.542Z,99.90
2023-02-07T23:40:27.417Z,99.90
2023-02-07T23:42:57.556Z,99.90
2023-02-07T23:45:28.466Z,99.90
2023-02-07T23:47:58.308Z,99.90
2023-02-07T23:50:29.187Z,99.90
2023-02-07T23:52:58.617Z,99.90
2023-02-07T23:55:28.420Z,99.90
2023-02-07T23:57:58.134Z,99.90
